createdAt,value
2022-11-25T00:00:29.921Z,1.20
2022-11-25T00:05:25.792Z,0.90
2022-11-25T00:07:52.559Z,1.40
2022-11-25T00:10:19.418Z,1.52
2022-11-25T00:15:12.660Z,0.60
2022-11-25T00:20:06.836Z,0.93
2022-11-25T00:22:33.685Z,0.60
2022-11-25T00:25:00.518Z,1.98
2022-11-25T00:29:53.740Z,1.02
2022-11-25T00:32:20.428Z,2.13
2022-11-25T00:37:14.941Z,0.50
2022-11-25T00:39:41.968Z,1.25
2022-11-25T00:42:28.955Z,2.88
2022-11-25T00:44:55.615Z,0.70
2022-11-25T00:47:22.384Z,1.02
2022-11-25T00:49:54.891Z,1.30
2022-11-25T00:52:26.499Z,1.67
2022-11-25T00:54:54.020Z,2.63
2022-11-25T00:57:23.361Z,0.30
2022-11-25T00:59:50.592Z,0.40
2022-11-25T01:02:18.879Z,2.08
2022-11-25T01:04:46.486Z,1.02
2022-11-25T01:07:15.902Z,2.50
2022-11-25T01:09:42.708Z,0.68
2022-11-25T01:14:36.753Z,0.40
2022-11-25T01:17:04.127Z,0.40
2022-11-25T01:19:32.978Z,0.60
2022-11-25T01:22:00.224Z,0.25
2022-11-25T01:24:26.894Z,1.38
2022-11-25T01:29:22.521Z,1.05
2022-11-25T01:31:49.870Z,1.48
2022-11-25T01:34:22.929Z,1.23
2022-11-25T01:36:49.854Z,3.85
2022-11-25T01:39:30.396Z,0.85
2022-11-25T01:42:00.226Z,0.40
2022-11-25T01:44:28.925Z,0.30
2022-11-25T01:47:25.788Z,1.17
2022-11-25T01:50:03.563Z,1.10
2022-11-25T01:52:38.063Z,4.72
2022-11-25T01:55:13.346Z,1.65
2022-11-25T01:57:50.604Z,0.80
2022-11-25T02:00:18.310Z,0.88
2022-11-25T02:02:47.620Z,3.53
2022-11-25T02:05:19.494Z,2.72
2022-11-25T02:07:51.037Z,1.30
2022-11-25T02:10:27.336Z,4.82
2022-11-25T02:12:54.842Z,1.10
2022-11-25T02:15:22.135Z,1.98
2022-11-25T02:17:49.401Z,2.75
2022-11-25T02:20:22.535Z,1.33
2022-11-25T02:23:25.627Z,1.42
2022-11-25T02:25:54.847Z,1.63
2022-11-25T02:28:30.579Z,1.75
2022-11-25T02:30:58.124Z,1.95
2022-11-25T02:33:25.940Z,4.72
2022-11-25T02:35:59.837Z,1.90
2022-11-25T02:38:45.092Z,1.42
2022-11-25T02:41:22.555Z,1.15
2022-11-25T02:43:55.406Z,1.95
2022-11-25T02:46:25.059Z,0.32
2022-11-25T02:49:08.383Z,1.23
2022-11-25T02:51:37.730Z,3.72
2022-11-25T02:54:04.721Z,2.92
2022-11-25T02:56:34.563Z,0.90
2022-11-25T02:59:01.863Z,1.05
2022-11-25T03:01:31.393Z,1.25
2022-11-25T03:03:58.720Z,0.40
2022-11-25T03:06:27.760Z,0.50
2022-11-25T03:08:55.069Z,2.28
2022-11-25T03:11:42.003Z,0.93
2022-11-25T03:14:09.308Z,1.42
2022-11-25T03:21:30.896Z,1.80
2022-11-25T03:23:58.078Z,3.55
2022-11-25T03:26:26.047Z,0.75
2022-11-25T03:28:52.936Z,0.52
2022-11-25T03:31:19.784Z,1.25
2022-11-25T03:33:46.684Z,0.50
2022-11-25T03:36:13.432Z,1.38
2022-11-25T03:41:07.124Z,1.73
2022-11-25T03:43:35.588Z,4.50
2022-11-25T03:46:02.628Z,1.30
2022-11-25T03:48:29.431Z,0.90
2022-11-25T03:50:56.338Z,0.80
2022-11-25T03:53:24.854Z,2.80
2022-11-25T03:55:52.155Z,0.82
2022-11-25T03:58:21.808Z,1.67
2022-11-25T04:00:50.134Z,0.63
2022-11-25T04:03:17.340Z,1.48
2022-11-25T04:05:44.294Z,2.55
2022-11-25T04:08:12.173Z,0.40
2022-11-25T04:10:39.547Z,2.47
2022-11-25T04:13:06.897Z,1.75
2022-11-25T04:15:37.721Z,2.58
2022-11-25T04:18:05.687Z,1.55
2022-11-25T04:20:33.583Z,0.75
2022-11-25T04:23:06.291Z,2.03
2022-11-25T04:25:36.664Z,2.15
2022-11-25T04:28:11.753Z,0.43
2022-11-25T04:33:05.767Z,0.82
2022-11-25T04:35:32.971Z,0.98
2022-11-25T04:40:27.229Z,0.70
2022-11-25T04:43:10.774Z,0.75
2022-11-25T04:48:29.159Z,3.10
2022-11-25T04:50:56.146Z,0.75
2022-11-25T04:53:22.962Z,3.83
2022-11-25T04:58:39.493Z,0.32
2022-11-25T05:01:06.623Z,0.30
2022-11-25T05:03:34.311Z,2.20
2022-11-25T05:06:07.160Z,0.57
2022-11-25T05:08:36.172Z,0.60
2022-11-25T05:11:03.053Z,1.00
2022-11-25T05:13:29.923Z,1.48
2022-11-25T05:15:59.890Z,0.75
2022-11-25T05:18:26.746Z,1.25
2022-11-25T05:25:49.052Z,3.47
2022-11-25T05:28:38.796Z,2.97
2022-11-25T05:31:06.032Z,0.80
2022-11-25T05:33:32.843Z,0.30
2022-11-25T05:38:34.599Z,0.45
2022-11-25T05:41:06.292Z,0.40
2022-11-25T05:43:33.616Z,0.30
2022-11-25T05:46:05.795Z,0.50
2022-11-25T05:48:34.540Z,0.60
2022-11-25T05:51:03.076Z,1.45
2022-11-25T05:53:31.413Z,0.43
2022-11-25T05:56:00.893Z,1.13
2022-11-25T05:58:46.716Z,0.70
2022-11-25T06:01:16.112Z,0.50
2022-11-25T06:03:44.802Z,1.20
2022-11-25T06:06:11.860Z,0.38
2022-11-25T06:08:39.598Z,1.17
2022-11-25T06:11:08.994Z,1.75
2022-11-25T06:13:37.046Z,0.68
2022-11-25T06:16:12.981Z,1.15
2022-11-25T06:18:39.908Z,0.45
2022-11-25T06:21:10.325Z,0.50
2022-11-25T06:23:38.068Z,0.50
2022-11-25T06:26:21.789Z,3.13
2022-11-25T06:28:52.319Z,0.95
2022-11-25T06:31:21.126Z,1.52
2022-11-25T06:33:57.442Z,5.43
2022-11-25T06:36:24.998Z,0.95
2022-11-25T06:41:20.938Z,1.95
2022-11-25T06:43:47.688Z,5.10
2022-11-25T06:48:49.973Z,0.70
2022-11-25T06:51:17.028Z,1.92
2022-11-25T06:53:43.778Z,3.13
2022-11-25T06:58:38.220Z,1.13
2022-11-25T07:01:11.505Z,3.28
2022-11-25T07:03:38.888Z,1.98
2022-11-25T07:06:05.761Z,0.95
2022-11-25T07:08:34.320Z,1.00
2022-11-25T07:11:12.825Z,1.52
2022-11-25T07:13:39.581Z,1.00
2022-11-25T07:18:36.092Z,1.75
2022-11-25T07:21:33.221Z,1.98
2022-11-25T07:24:02.020Z,2.22
2022-11-25T07:26:38.270Z,1.83
2022-11-25T07:29:18.224Z,4.40
2022-11-25T07:31:54.036Z,3.90
2022-11-25T07:34:21.470Z,1.27
2022-11-25T07:36:49.705Z,3.00
2022-11-25T07:39:22.327Z,2.25
2022-11-25T07:41:53.674Z,2.80
2022-11-25T07:44:21.441Z,3.17
2022-11-25T07:47:06.860Z,3.15
2022-11-25T07:52:00.536Z,6.50
2022-11-25T07:54:27.399Z,2.90
2022-11-25T07:59:22.726Z,2.67
2022-11-25T08:01:51.649Z,2.05
2022-11-25T08:04:20.782Z,6.15
2022-11-25T08:06:49.924Z,2.55
2022-11-25T08:09:20.129Z,3.80
2022-11-25T08:11:48.037Z,3.28
2022-11-25T08:14:15.767Z,2.00
2022-11-25T08:16:42.565Z,2.67
2022-11-25T08:21:38.402Z,2.53
2022-11-25T08:26:36.562Z,4.68
2022-11-25T08:29:06.589Z,4.53
2022-11-25T08:31:36.194Z,4.40
2022-11-25T08:34:03.904Z,5.47
2022-11-25T08:36:31.640Z,5.78
2022-11-25T08:39:00.120Z,6.82
2022-11-25T08:41:33.143Z,18.40
2022-11-25T08:44:02.014Z,13.07
2022-11-25T08:46:34.107Z,7.40
2022-11-25T08:49:01.032Z,12.00
2022-11-25T08:53:55.885Z,16.80
2022-11-25T08:56:26.227Z,15.38
2022-11-25T08:58:54.543Z,10.63
2022-11-25T09:01:22.321Z,11.02
2022-11-25T09:03:50.581Z,14.55
2022-11-25T09:06:17.553Z,11.40
2022-11-25T09:08:45.044Z,13.75
2022-11-25T09:11:12.393Z,9.50
2022-11-25T09:13:39.261Z,9.10
2022-11-25T09:16:06.924Z,8.13
2022-11-25T09:18:35.280Z,8.95
2022-11-25T09:21:09.675Z,9.15
2022-11-25T09:23:38.430Z,7.38
2022-11-25T09:26:06.547Z,5.97
2022-11-25T09:28:34.625Z,5.43
2022-11-25T09:31:08.225Z,11.57
2022-11-25T09:33:35.563Z,7.47
2022-11-25T09:36:03.418Z,8.20
2022-11-25T09:38:30.863Z,6.80
2022-11-25T09:41:07.268Z,6.10
2022-11-25T09:44:40.040Z,5.07
2022-11-25T09:47:32.658Z,6.57
2022-11-25T09:50:29.793Z,7.72
2022-11-25T09:53:27.021Z,8.07
2022-11-25T09:56:01.498Z,9.02
2022-11-25T09:58:44.473Z,10.40
2022-11-25T10:01:18.282Z,5.88
2022-11-25T10:03:49.011Z,12.25
2022-11-25T10:06:28.699Z,8.95
2022-11-25T10:08:58.740Z,5.47
2022-11-25T10:11:58.018Z,8.35
2022-11-25T10:14:28.387Z,4.43
2022-11-25T10:17:01.489Z,8.07
2022-11-25T10:19:28.407Z,4.50
2022-11-25T10:21:56.262Z,5.28
2022-11-25T10:24:24.398Z,4.70
2022-11-25T10:27:01.225Z,4.68
2022-11-25T10:29:29.996Z,4.95
2022-11-25T10:32:28.077Z,5.93
2022-11-25T10:35:01.302Z,8.13
2022-11-25T10:37:33.815Z,6.55
2022-11-25T10:40:00.547Z,3.63
2022-11-25T10:42:28.558Z,6.78
2022-11-25T10:44:55.729Z,5.03
2022-11-25T10:47:44.423Z,3.20
2022-11-25T10:50:38.866Z,4.13
2022-11-25T10:53:08.557Z,6.00
2022-11-25T10:55:35.620Z,3.53
2022-11-25T10:58:33.176Z,6.95
2022-11-25T11:01:25.587Z,8.33
2022-11-25T11:04:05.700Z,5.03
2022-11-25T11:06:36.569Z,7.75
2022-11-25T11:09:04.011Z,7.90
2022-11-25T11:11:31.637Z,4.55
2022-11-25T11:14:21.661Z,7.40
2022-11-25T11:16:54.305Z,3.20
2022-11-25T11:19:26.963Z,5.38
2022-11-25T11:21:56.620Z,6.05
2022-11-25T11:24:35.357Z,6.80
2022-11-25T11:27:20.481Z,4.80
2022-11-25T11:29:47.260Z,5.18
2022-11-25T11:35:23.004Z,5.88
2022-11-25T11:37:54.528Z,5.65
2022-11-25T11:40:46.425Z,5.32
2022-11-25T11:43:36.693Z,5.82
2022-11-25T11:46:30.158Z,6.63
2022-11-25T11:49:15.160Z,8.30
2022-11-25T11:52:08.227Z,4.28
2022-11-25T11:54:40.506Z,4.95
2022-11-25T11:57:11.062Z,7.80
2022-11-25T11:59:40.577Z,4.28
2022-11-25T12:02:26.115Z,8.95
2022-11-25T12:05:15.694Z,8.57
2022-11-25T12:08:23.190Z,6.07
2022-11-25T12:11:25.441Z,9.85
2022-11-25T12:14:24.996Z,6.70
2022-11-25T12:17:01.961Z,8.52
2022-11-25T12:19:50.691Z,7.55
2022-11-25T12:22:32.343Z,5.22
2022-11-25T12:25:06.205Z,8.50
2022-11-25T12:27:44.274Z,11.27
2022-11-25T12:30:16.270Z,3.80
2022-11-25T12:33:06.326Z,6.82
2022-11-25T12:35:51.246Z,7.05
2022-11-25T12:38:30.491Z,7.72
2022-11-25T12:41:12.392Z,14.43
2022-11-25T12:44:12.764Z,12.32
2022-11-25T12:46:50.684Z,8.30
2022-11-25T12:49:30.190Z,8.88
2022-11-25T12:52:02.846Z,9.70
2022-11-25T12:54:54.673Z,6.47
2022-11-25T12:57:33.551Z,11.88
2022-11-25T13:04:00.660Z,4.95
2022-11-25T13:06:38.765Z,4.97
2022-11-25T13:09:11.644Z,7.88
2022-11-25T13:12:00.351Z,8.88
2022-11-25T13:14:40.040Z,5.82
2022-11-25T13:17:13.975Z,7.47
2022-11-25T13:19:41.570Z,5.30
2022-11-25T13:22:29.694Z,6.20
2022-11-25T13:24:58.321Z,5.72
2022-11-25T13:27:40.015Z,11.13
2022-11-25T13:30:32.669Z,9.38
2022-11-25T13:33:11.691Z,8.82
2022-11-25T13:35:49.282Z,7.18
2022-11-25T13:38:36.308Z,8.00
2022-11-25T13:41:25.228Z,5.13
2022-11-25T13:44:18.932Z,11.10
2022-11-25T13:46:53.535Z,8.20
2022-11-25T13:49:53.958Z,7.65
2022-11-25T13:52:20.557Z,7.85
2022-11-25T13:54:53.553Z,6.72
2022-11-25T13:57:27.350Z,10.88
2022-11-25T13:59:58.101Z,6.70
2022-11-25T14:02:27.687Z,7.25
2022-11-25T14:05:04.844Z,3.85
2022-11-25T14:08:07.739Z,5.40
2022-11-25T14:11:12.207Z,6.13
2022-11-25T14:14:01.378Z,11.60
2022-11-25T14:16:55.154Z,8.13
2022-11-25T14:19:52.027Z,3.92
2022-11-25T14:22:28.243Z,5.47
2022-11-25T14:25:09.876Z,3.58
2022-11-25T14:27:36.866Z,2.08
2022-11-25T14:32:40.450Z,3.53
2022-11-25T14:35:13.815Z,4.20
2022-11-25T14:37:59.489Z,1.75
2022-11-25T14:40:36.579Z,1.77
2022-11-25T14:43:07.884Z,2.67
2022-11-25T14:45:35.664Z,3.80
2022-11-25T14:48:18.870Z,2.92
2022-11-25T14:51:00.864Z,2.80
2022-11-25T14:53:29.861Z,4.65
2022-11-25T14:56:00.102Z,2.50
2022-11-25T14:58:27.494Z,4.97
2022-11-25T15:01:16.568Z,10.48
2022-11-25T15:03:45.850Z,5.35
2022-11-25T15:06:14.340Z,3.88
2022-11-25T15:08:43.822Z,6.60
2022-11-25T15:11:20.970Z,1.98
2022-11-25T15:13:55.248Z,5.03
2022-11-25T15:16:26.092Z,5.43
2022-11-25T15:19:01.625Z,3.90
2022-11-25T15:21:53.762Z,4.13
2022-11-25T15:24:32.706Z,6.75
2022-11-25T15:27:02.485Z,8.82
2022-11-25T15:29:31.291Z,2.10
2022-11-25T15:31:59.897Z,5.00
2022-11-25T15:34:29.395Z,7.63
2022-11-25T15:36:56.250Z,5.40
2022-11-25T15:42:16.107Z,11.55
2022-11-25T15:44:54.641Z,13.02
2022-11-25T15:47:31.094Z,10.63
2022-11-25T15:50:07.408Z,5.60
2022-11-25T15:52:37.595Z,6.15
2022-11-25T15:55:31.691Z,6.65
2022-11-25T15:58:23.529Z,6.28
2022-11-25T16:01:06.082Z,8.32
2022-11-25T16:03:35.178Z,10.60
2022-11-25T16:06:02.925Z,4.57
2022-11-25T16:08:37.249Z,4.07
2022-11-25T16:11:20.721Z,5.53
2022-11-25T16:13:49.278Z,6.50
2022-11-25T16:16:22.013Z,4.82
2022-11-25T16:19:04.899Z,5.40
2022-11-25T16:21:40.040Z,5.18
2022-11-25T16:24:06.849Z,7.20
2022-11-25T16:29:14.722Z,4.90
2022-11-25T16:31:41.748Z,3.75
2022-11-25T16:34:17.066Z,4.88
2022-11-25T16:36:43.919Z,5.20
2022-11-25T16:41:37.815Z,4.15
2022-11-25T16:44:12.408Z,4.63
2022-11-25T16:46:39.331Z,9.88
2022-11-25T16:49:13.711Z,5.38
2022-11-25T16:51:40.566Z,7.80
2022-11-25T16:56:37.080Z,8.52
2022-11-25T16:59:04.609Z,6.50
2022-11-25T17:01:34.190Z,11.82
2022-11-25T17:04:00.946Z,7.38
2022-11-25T17:06:30.456Z,6.18
2022-11-25T17:08:57.158Z,4.63
2022-11-25T17:11:35.464Z,8.10
2022-11-25T17:14:11.539Z,7.22
2022-11-25T17:16:41.203Z,4.07
2022-11-25T17:19:13.534Z,8.20
2022-11-25T17:21:40.234Z,7.03
2022-11-25T17:24:15.168Z,6.28
2022-11-25T17:26:43.834Z,5.32
2022-11-25T17:29:16.965Z,6.45
2022-11-25T17:31:44.658Z,6.45
2022-11-25T17:34:16.738Z,13.30
2022-11-25T17:36:45.045Z,16.88
2022-11-25T17:39:15.254Z,10.35
2022-11-25T17:41:47.415Z,7.80
2022-11-25T17:44:26.559Z,9.02
2022-11-25T17:46:54.908Z,10.73
2022-11-25T17:49:22.370Z,12.48
2022-11-25T17:51:49.443Z,4.65
2022-11-25T17:54:16.721Z,8.10
2022-11-25T17:56:50.747Z,14.52
2022-11-25T17:59:32.644Z,12.57
2022-11-25T18:01:59.782Z,15.13
2022-11-25T18:04:30.997Z,7.82
2022-11-25T18:06:57.718Z,10.38
2022-11-25T18:11:55.923Z,11.65
2022-11-25T18:14:28.236Z,11.68
2022-11-25T18:16:56.051Z,10.15
2022-11-25T18:19:22.923Z,7.63
2022-11-25T18:21:49.862Z,8.20
2022-11-25T18:26:49.019Z,8.02
2022-11-25T18:29:23.446Z,12.73
2022-11-25T18:31:52.283Z,8.13
2022-11-25T18:34:19.154Z,7.03
2022-11-25T18:39:13.709Z,8.13
2022-11-25T18:41:41.542Z,6.80
2022-11-25T18:44:25.905Z,11.15
2022-11-25T18:46:53.573Z,9.82
2022-11-25T18:49:20.874Z,5.93
2022-11-25T18:51:47.677Z,14.40
2022-11-25T18:56:41.989Z,9.63
2022-11-25T18:59:14.868Z,7.68
2022-11-25T19:01:45.349Z,5.88
2022-11-25T19:04:16.181Z,16.90
2022-11-25T19:06:43.501Z,13.48
2022-11-25T19:09:10.932Z,8.40
2022-11-25T19:11:42.413Z,14.75
2022-11-25T19:14:34.693Z,13.73
2022-11-25T19:17:08.147Z,12.93
2022-11-25T19:19:37.643Z,11.00
2022-11-25T19:22:11.098Z,15.27
2022-11-25T19:24:38.073Z,13.95
2022-11-25T19:27:05.060Z,9.00
2022-11-25T19:29:42.043Z,11.25
2022-11-25T19:35:04.027Z,9.07
2022-11-25T19:37:31.068Z,11.88
2022-11-25T19:39:57.968Z,9.52
2022-11-25T19:42:25.828Z,14.32
2022-11-25T19:44:55.453Z,15.70
2022-11-25T19:47:26.635Z,14.00
2022-11-25T19:49:57.067Z,9.98
2022-11-25T19:52:31.592Z,13.52
2022-11-25T19:54:58.530Z,16.48
2022-11-25T19:57:25.240Z,12.25
2022-11-25T19:59:52.169Z,12.20
2022-11-25T20:02:21.685Z,11.38
2022-11-25T20:04:50.708Z,7.90
2022-11-25T20:07:20.576Z,8.50
2022-11-25T20:09:48.096Z,9.45
2022-11-25T20:12:26.757Z,7.70
2022-11-25T20:14:53.503Z,14.18
2022-11-25T20:19:55.688Z,8.15
2022-11-25T20:22:28.844Z,10.27
2022-11-25T20:24:56.784Z,11.25
2022-11-25T20:27:27.052Z,14.32
2022-11-25T20:29:54.506Z,10.25
2022-11-25T20:32:34.080Z,12.82
2022-11-25T20:35:00.879Z,16.50
2022-11-25T20:40:20.409Z,7.55
2022-11-25T20:42:49.234Z,13.90
2022-11-25T20:45:18.671Z,18.33
2022-11-25T20:47:46.969Z,9.00
2022-11-25T20:50:14.217Z,12.93
2022-11-25T20:52:42.350Z,8.85
2022-11-25T20:55:23.837Z,10.02
2022-11-25T20:57:51.984Z,9.75
2022-11-25T21:00:24.956Z,9.43
2022-11-25T21:02:53.350Z,8.93
2022-11-25T21:05:20.962Z,10.32
2022-11-25T21:07:49.982Z,9.25
2022-11-25T21:10:28.731Z,13.82
2022-11-25T21:12:56.574Z,12.65
2022-11-25T21:15:25.534Z,16.33
2022-11-25T21:17:52.214Z,17.17
2022-11-25T21:20:19.774Z,17.23
2022-11-25T21:22:49.800Z,6.93
2022-11-25T21:25:21.953Z,11.35
2022-11-25T21:27:50.268Z,10.10
2022-11-25T21:30:19.411Z,14.88
2022-11-25T21:32:46.661Z,12.13
2022-11-25T21:35:14.790Z,13.73
2022-11-25T21:37:44.320Z,13.57
2022-11-25T21:40:23.093Z,12.95
2022-11-25T21:42:49.873Z,14.60
2022-11-25T21:47:43.889Z,11.48
2022-11-25T21:52:41.226Z,11.80
2022-11-25T21:55:11.752Z,10.73
2022-11-25T21:57:39.508Z,10.18
2022-11-25T22:00:21.611Z,10.20
2022-11-25T22:02:48.545Z,13.32
2022-11-25T22:05:20.402Z,8.57
2022-11-25T22:07:47.940Z,12.70
2022-11-25T22:10:16.529Z,10.95
2022-11-25T22:12:46.071Z,9.57
2022-11-25T22:15:21.605Z,9.25
2022-11-25T22:17:50.760Z,7.60
2022-11-25T22:20:36.158Z,8.45
2022-11-25T22:23:10.584Z,13.52
2022-11-25T22:25:37.341Z,9.88
2022-11-25T22:28:04.292Z,9.85
2022-11-25T22:30:31.008Z,11.63
2022-11-25T22:33:01.491Z,9.50
2022-11-25T22:35:28.404Z,7.13
2022-11-25T22:37:55.641Z,8.98
2022-11-25T22:40:23.330Z,8.23
2022-11-25T22:42:51.119Z,14.35
2022-11-25T22:45:30.990Z,14.68
2022-11-25T22:47:59.356Z,12.23
2022-11-25T22:50:33.715Z,15.40
2022-11-25T22:53:01.016Z,13.43
2022-11-25T22:55:33.224Z,14.68
2022-11-25T22:58:01.614Z,10.98
2022-11-25T23:00:38.375Z,14.05
2022-11-25T23:03:07.430Z,13.63
2022-11-25T23:05:36.214Z,10.32
2022-11-25T23:08:12.057Z,10.57
2022-11-25T23:10:38.843Z,11.45
2022-11-25T23:15:32.283Z,11.43
2022-11-25T23:18:01.428Z,12.20
2022-11-25T23:20:32.715Z,11.60
2022-11-25T23:23:16.747Z,12.15
2022-11-25T23:25:44.313Z,14.65
2022-11-25T23:28:11.398Z,17.38
2022-11-25T23:30:40.844Z,20.55
2022-11-25T23:33:37.951Z,8.43
2022-11-25T23:36:23.606Z,13.63
2022-11-25T23:39:01.816Z,11.85
2022-11-25T23:41:31.056Z,11.07
2022-11-25T23:44:05.891Z,12.07
2022-11-25T23:46:34.581Z,10.55
2022-11-25T23:49:03.844Z,11.88
2022-11-25T23:51:30.948Z,9.18
2022-11-25T23:53:58.795Z,9.38
2022-11-25T23:56:27.931Z,16.35
2022-11-25T23:58:54.610Z,14.45
